sensor_id;sensor_type;location;lat;lon;timestamp;P1;durP1;ratioP1;P2;durP2;ratioP2
47429;SDS011;33181;49.246;7.372;2023-05-29T00:01:21;11.57;;;7.10;;
47429;SDS011;33181;49.246;7.372;2023-05-29T00:03:49;10.70;;;7.43;;
47429;SDS011;33181;49.246;7.372;2023-05-29T00:06:16;11.63;;;6.73;;
47429;SDS011;33181;49.246;7.372;2023-05-29T00:08:43;12.27;;;7.50;;
47429;SDS011;33181;49.246;7.372;2023-05-29T00:11:09;11.07;;;7.70;;
47429;SDS011;33181;49.246;7.372;2023-05-29T00:13:34;10.67;;;7.20;;
47429;SDS011;33181;49.246;7.372;2023-05-29T00:16:01;12.37;;;7.23;;
47429;SDS011;33181;49.246;7.372;2023-05-29T00:18:27;11.63;;;7.77;;
47429;SDS011;33181;49.246;7.372;2023-05-29T00:20:53;12.10;;;7.83;;
47429;SDS011;33181;49.246;7.372;2023-05-29T00:23:19;12.37;;;7.50;;
47429;SDS011;33181;49.246;7.372;2023-05-29T00:25:46;12.93;;;7.57;;
47429;SDS011;33181;49.246;7.372;2023-05-29T00:28:12;11.90;;;7.30;;
47429;SDS011;33181;49.246;7.372;2023-05-29T00:30:38;11.13;;;7.10;;
47429;SDS011;33181;49.246;7.372;2023-05-29T00:33:05;12.13;;;7.67;;
47429;SDS011;33181;49.246;7.372;2023-05-29T00:35:31;10.77;;;7.20;;
47429;SDS011;33181;49.246;7.372;2023-05-29T00:37:57;9.73;;;6.80;;
47429;SDS011;33181;49.246;7.372;2023-05-29T00:40:23;9.40;;;6.60;;
47429;SDS011;33181;49.246;7.372;2023-05-29T00:42:52;9.97;;;7.17;;
47429;SDS011;33181;49.246;7.372;2023-05-29T00:45:19;9.27;;;6.50;;
47429;SDS011;33181;49.246;7.372;2023-05-29T00:47:46;12.17;;;7.80;;
47429;SDS011;33181;49.246;7.372;2023-05-29T00:50:12;10.30;;;7.00;;
47429;SDS011;33181;49.246;7.372;2023-05-29T00:52:40;8.63;;;6.67;;
47429;SDS011;33181;49.246;7.372;2023-05-29T00:55:08;10.50;;;7.33;;
47429;SDS011;33181;49.246;7.372;2023-05-29T00:57:35;10.67;;;7.07;;
47429;SDS011;33181;49.246;7.372;2023-05-29T01:00:05;11.80;;;7.30;;
47429;SDS011;33181;49.246;7.372;2023-05-29T01:02:38;9.60;;;6.97;;
47429;SDS011;33181;49.246;7.372;2023-05-29T01:05:10;10.00;;;7.20;;
47429;SDS011;33181;49.246;7.372;2023-05-29T01:07:37;9.47;;;6.37;;
47429;SDS011;33181;49.246;7.372;2023-05-29T01:10:04;12.13;;;7.53;;
47429;SDS011;33181;49.246;7.372;2023-05-29T01:12:35;12.43;;;7.17;;
47429;SDS011;33181;49.246;7.372;2023-05-29T01:18:07;12.50;;;7.17;;
47429;SDS011;33181;49.246;7.372;2023-05-29T01:20:45;12.73;;;7.07;;
47429;SDS011;33181;49.246;7.372;2023-05-29T01:26:47;9.10;;;6.40;;
47429;SDS011;33181;49.246;7.372;2023-05-29T01:29:24;9.70;;;6.43;;
47429;SDS011;33181;49.246;7.372;2023-05-29T01:31:55;10.20;;;6.30;;
47429;SDS011;33181;49.246;7.372;2023-05-29T01:34:23;14.83;;;6.93;;
47429;SDS011;33181;49.246;7.372;2023-05-29T01:36:49;9.77;;;6.73;;
47429;SDS011;33181;49.246;7.372;2023-05-29T01:39:15;11.40;;;6.17;;
47429;SDS011;33181;49.246;7.372;2023-05-29T01:41:43;11.73;;;7.00;;
47429;SDS011;33181;49.246;7.372;2023-05-29T01:44:10;11.30;;;7.30;;
47429;SDS011;33181;49.246;7.372;2023-05-29T01:46:38;10.03;;;6.93;;
47429;SDS011;33181;49.246;7.372;2023-05-29T01:49:07;8.40;;;6.20;;
47429;SDS011;33181;49.246;7.372;2023-05-29T01:51:34;10.10;;;6.70;;
47429;SDS011;33181;49.246;7.372;2023-05-29T01:54:00;10.47;;;6.60;;
47429;SDS011;33181;49.246;7.372;2023-05-29T01:56:27;10.17;;;6.60;;
47429;SDS011;33181;49.246;7.372;2023-05-29T01:58:55;9.73;;;6.53;;
47429;SDS011;33181;49.246;7.372;2023-05-29T02:01:22;10.43;;;6.80;;
47429;SDS011;33181;49.246;7.372;2023-05-29T02:03:49;10.80;;;6.73;;
47429;SDS011;33181;49.246;7.372;2023-05-29T02:06:16;11.27;;;6.20;;
47429;SDS011;33181;49.246;7.372;2023-05-29T02:08:42;12.00;;;6.60;;
47429;SDS011;33181;49.246;7.372;2023-05-29T02:11:08;11.50;;;6.60;;
47429;SDS011;33181;49.246;7.372;2023-05-29T02:13:34;9.20;;;6.80;;
47429;SDS011;33181;49.246;7.372;2023-05-29T02:16:00;9.00;;;6.53;;
47429;SDS011;33181;49.246;7.372;2023-05-29T02:18:26;8.70;;;6.20;;
47429;SDS011;33181;49.246;7.372;2023-05-29T02:20:53;8.37;;;5.93;;
47429;SDS011;33181;49.246;7.372;2023-05-29T02:23:19;8.60;;;6.00;;
47429;SDS011;33181;49.246;7.372;2023-05-29T02:25:45;9.03;;;6.50;;
47429;SDS011;33181;49.246;7.372;2023-05-29T02:28:12;11.47;;;6.40;;
47429;SDS011;33181;49.246;7.372;2023-05-29T02:30:40;10.53;;;6.60;;
47429;SDS011;33181;49.246;7.372;2023-05-29T02:33:05;8.87;;;6.43;;
47429;SDS011;33181;49.246;7.372;2023-05-29T02:35:31;8.93;;;5.70;;
47429;SDS011;33181;49.246;7.372;2023-05-29T02:37:57;12.30;;;6.40;;
47429;SDS011;33181;49.246;7.372;2023-05-29T02:40:23;9.30;;;6.30;;
47429;SDS011;33181;49.246;7.372;2023-05-29T02:42:52;9.70;;;7.10;;
47429;SDS011;33181;49.246;7.372;2023-05-29T02:45:21;9.97;;;7.33;;
47429;SDS011;33181;49.246;7.372;2023-05-29T02:47:47;11.93;;;6.83;;
47429;SDS011;33181;49.246;7.372;2023-05-29T02:50:12;10.50;;;6.80;;
47429;SDS011;33181;49.246;7.372;2023-05-29T02:52:39;8.50;;;6.23;;
47429;SDS011;33181;49.246;7.372;2023-05-29T02:55:05;9.77;;;5.97;;
47429;SDS011;33181;49.246;7.372;2023-05-29T02:57:32;12.03;;;6.60;;
47429;SDS011;33181;49.246;7.372;2023-05-29T02:59:58;10.57;;;6.30;;
47429;SDS011;33181;49.246;7.372;2023-05-29T03:02:25;10.67;;;6.50;;
47429;SDS011;33181;49.246;7.372;2023-05-29T03:04:52;9.97;;;6.80;;
47429;SDS011;33181;49.246;7.372;2023-05-29T03:07:18;7.97;;;5.80;;
47429;SDS011;33181;49.246;7.372;2023-05-29T03:09:44;9.73;;;6.63;;
47429;SDS011;33181;49.246;7.372;2023-05-29T03:12:12;12.13;;;6.90;;
47429;SDS011;33181;49.246;7.372;2023-05-29T03:14:37;9.30;;;6.37;;
47429;SDS011;33181;49.246;7.372;2023-05-29T03:17:03;7.73;;;6.10;;
47429;SDS011;33181;49.246;7.372;2023-05-29T03:19:31;9.07;;;6.83;;
47429;SDS011;33181;49.246;7.372;2023-05-29T03:21:56;12.00;;;7.17;;
47429;SDS011;33181;49.246;7.372;2023-05-29T03:24:22;10.70;;;7.37;;
47429;SDS011;33181;49.246;7.372;2023-05-29T03:26:50;10.30;;;7.30;;
47429;SDS011;33181;49.246;7.372;2023-05-29T03:29:17;10.83;;;6.73;;
47429;SDS011;33181;49.246;7.372;2023-05-29T03:31:43;12.53;;;6.90;;
47429;SDS011;33181;49.246;7.372;2023-05-29T03:34:09;9.70;;;6.43;;
47429;SDS011;33181;49.246;7.372;2023-05-29T03:36:34;9.10;;;6.60;;
47429;SDS011;33181;49.246;7.372;2023-05-29T03:39:03;11.00;;;6.30;;
47429;SDS011;33181;49.246;7.372;2023-05-29T03:41:29;9.60;;;6.37;;
47429;SDS011;33181;49.246;7.372;2023-05-29T03:43:55;11.20;;;6.57;;
47429;SDS011;33181;49.246;7.372;2023-05-29T03:46:21;10.87;;;6.40;;
47429;SDS011;33181;49.246;7.372;2023-05-29T03:48:47;11.27;;;6.50;;
47429;SDS011;33181;49.246;7.372;2023-05-29T03:51:13;8.90;;;6.43;;
47429;SDS011;33181;49.246;7.372;2023-05-29T03:53:39;8.10;;;5.80;;
47429;SDS011;33181;49.246;7.372;2023-05-29T03:56:04;9.17;;;6.40;;
47429;SDS011;33181;49.246;7.372;2023-05-29T03:58:30;14.07;;;6.30;;
47429;SDS011;33181;49.246;7.372;2023-05-29T04:00:56;9.57;;;6.30;;
47429;SDS011;33181;49.246;7.372;2023-05-29T04:03:22;8.37;;;6.00;;
47429;SDS011;33181;49.246;7.372;2023-05-29T04:05:49;10.47;;;6.30;;
47429;SDS011;33181;49.246;7.372;2023-05-29T04:08:15;8.00;;;5.90;;
47429;SDS011;33181;49.246;7.372;2023-05-29T04:10:41;9.37;;;6.03;;
47429;SDS011;33181;49.246;7.372;2023-05-29T04:13:07;9.03;;;5.97;;
47429;SDS011;33181;49.246;7.372;2023-05-29T04:15:32;9.27;;;5.77;;
47429;SDS011;33181;49.246;7.372;2023-05-29T04:17:59;10.07;;;5.70;;
47429;SDS011;33181;49.246;7.372;2023-05-29T04:20:25;9.23;;;6.37;;
47429;SDS011;33181;49.246;7.372;2023-05-29T04:22:51;12.80;;;6.53;;
47429;SDS011;33181;49.246;7.372;2023-05-29T04:25:17;11.53;;;6.57;;
47429;SDS011;33181;49.246;7.372;2023-05-29T04:27:44;10.50;;;6.30;;
47429;SDS011;33181;49.246;7.372;2023-05-29T04:30:16;8.80;;;5.77;;
47429;SDS011;33181;49.246;7.372;2023-05-29T04:32:43;9.73;;;6.17;;
47429;SDS011;33181;49.246;7.372;2023-05-29T04:35:09;8.87;;;6.20;;
47429;SDS011;33181;49.246;7.372;2023-05-29T04:37:35;12.10;;;5.70;;
47429;SDS011;33181;49.246;7.372;2023-05-29T04:40:04;7.83;;;5.70;;
47429;SDS011;33181;49.246;7.372;2023-05-29T04:42:37;6.90;;;5.67;;
47429;SDS011;33181;49.246;7.372;2023-05-29T04:45:04;8.30;;;6.50;;
47429;SDS011;33181;49.246;7.372;2023-05-29T04:47:31;10.50;;;5.83;;
47429;SDS011;33181;49.246;7.372;2023-05-29T04:50:01;8.50;;;5.87;;
47429;SDS011;33181;49.246;7.372;2023-05-29T04:52:27;8.40;;;6.17;;
47429;SDS011;33181;49.246;7.372;2023-05-29T04:54:54;8.03;;;6.10;;
47429;SDS011;33181;49.246;7.372;2023-05-29T04:57:20;8.90;;;6.03;;
47429;SDS011;33181;49.246;7.372;2023-05-29T04:59:46;7.70;;;5.90;;
47429;SDS011;33181;49.246;7.372;2023-05-29T05:02:12;8.23;;;5.57;;
47429;SDS011;33181;49.246;7.372;2023-05-29T05:04:38;7.13;;;5.50;;
47429;SDS011;33181;49.246;7.372;2023-05-29T05:07:04;9.07;;;6.07;;
47429;SDS011;33181;49.246;7.372;2023-05-29T05:09:31;10.97;;;5.80;;
47429;SDS011;33181;49.246;7.372;2023-05-29T05:11:57;9.07;;;6.20;;
47429;SDS011;33181;49.246;7.372;2023-05-29T05:14:23;8.30;;;5.97;;
47429;SDS011;33181;49.246;7.372;2023-05-29T05:16:50;7.37;;;5.97;;
47429;SDS011;33181;49.246;7.372;2023-05-29T05:19:16;8.80;;;6.03;;
47429;SDS011;33181;49.246;7.372;2023-05-29T05:21:41;12.60;;;5.97;;
47429;SDS011;33181;49.246;7.372;2023-05-29T05:24:07;8.20;;;5.60;;
47429;SDS011;33181;49.246;7.372;2023-05-29T05:26:33;8.90;;;5.60;;
47429;SDS011;33181;49.246;7.372;2023-05-29T05:28:59;7.53;;;5.40;;
47429;SDS011;33181;49.246;7.372;2023-05-29T05:31:26;8.23;;;5.77;;
47429;SDS011;33181;49.246;7.372;2023-05-29T05:33:52;8.90;;;5.93;;
47429;SDS011;33181;49.246;7.372;2023-05-29T05:36:18;6.93;;;5.27;;
47429;SDS011;33181;49.246;7.372;2023-05-29T05:38:44;7.90;;;5.63;;
47429;SDS011;33181;49.246;7.372;2023-05-29T05:41:10;7.97;;;5.70;;
47429;SDS011;33181;49.246;7.372;2023-05-29T05:43:36;6.70;;;5.60;;
47429;SDS011;33181;49.246;7.372;2023-05-29T05:46:02;7.53;;;5.87;;
47429;SDS011;33181;49.246;7.372;2023-05-29T05:48:28;10.40;;;5.97;;
47429;SDS011;33181;49.246;7.372;2023-05-29T05:50:53;8.90;;;5.67;;
47429;SDS011;33181;49.246;7.372;2023-05-29T05:53:19;7.97;;;5.30;;
47429;SDS011;33181;49.246;7.372;2023-05-29T05:55:46;7.30;;;4.80;;
47429;SDS011;33181;49.246;7.372;2023-05-29T05:58:12;8.37;;;4.93;;
47429;SDS011;33181;49.246;7.372;2023-05-29T06:00:39;6.87;;;5.07;;
47429;SDS011;33181;49.246;7.372;2023-05-29T06:03:05;6.50;;;5.13;;
47429;SDS011;33181;49.246;7.372;2023-05-29T06:05:31;7.37;;;5.13;;
47429;SDS011;33181;49.246;7.372;2023-05-29T06:07:59;7.80;;;5.57;;
47429;SDS011;33181;49.246;7.372;2023-05-29T06:10:24;8.10;;;5.03;;
47429;SDS011;33181;49.246;7.372;2023-05-29T06:12:53;6.47;;;4.77;;
47429;SDS011;33181;49.246;7.372;2023-05-29T06:15:19;7.33;;;4.93;;
47429;SDS011;33181;49.246;7.372;2023-05-29T06:17:46;9.03;;;4.63;;
47429;SDS011;33181;49.246;7.372;2023-05-29T06:20:11;6.50;;;4.83;;
47429;SDS011;33181;49.246;7.372;2023-05-29T06:22:38;7.80;;;5.20;;
47429;SDS011;33181;49.246;7.372;2023-05-29T06:25:05;10.07;;;5.23;;
47429;SDS011;33181;49.246;7.372;2023-05-29T06:27:31;10.00;;;4.87;;
47429;SDS011;33181;49.246;7.372;2023-05-29T06:29:57;10.80;;;4.70;;
47429;SDS011;33181;49.246;7.372;2023-05-29T06:32:24;9.10;;;5.20;;
47429;SDS011;33181;49.246;7.372;2023-05-29T06:34:50;7.87;;;4.50;;
47429;SDS011;33181;49.246;7.372;2023-05-29T06:37:16;10.13;;;4.90;;
47429;SDS011;33181;49.246;7.372;2023-05-29T06:39:45;8.80;;;4.73;;
47429;SDS011;33181;49.246;7.372;2023-05-29T06:42:11;7.97;;;4.47;;
47429;SDS011;33181;49.246;7.372;2023-05-29T06:44:37;8.47;;;4.63;;
47429;SDS011;33181;49.246;7.372;2023-05-29T06:47:03;7.50;;;4.47;;
47429;SDS011;33181;49.246;7.372;2023-05-29T06:49:31;7.37;;;4.80;;
47429;SDS011;33181;49.246;7.372;2023-05-29T06:51:57;6.87;;;4.63;;
47429;SDS011;33181;49.246;7.372;2023-05-29T06:54:23;9.07;;;4.80;;
47429;SDS011;33181;49.246;7.372;2023-05-29T06:56:49;9.33;;;5.10;;
47429;SDS011;33181;49.246;7.372;2023-05-29T06:59:16;8.20;;;4.70;;
47429;SDS011;33181;49.246;7.372;2023-05-29T07:01:42;8.17;;;4.60;;
47429;SDS011;33181;49.246;7.372;2023-05-29T07:04:08;7.50;;;4.23;;
47429;SDS011;33181;49.246;7.372;2023-05-29T07:06:36;7.40;;;4.70;;
47429;SDS011;33181;49.246;7.372;2023-05-29T07:09:03;8.20;;;5.20;;
47429;SDS011;33181;49.246;7.372;2023-05-29T07:11:30;6.43;;;4.80;;
47429;SDS011;33181;49.246;7.372;2023-05-29T07:13:56;7.43;;;4.13;;
47429;SDS011;33181;49.246;7.372;2023-05-29T07:16:21;10.73;;;4.73;;
47429;SDS011;33181;49.246;7.372;2023-05-29T07:18:47;9.40;;;4.97;;
47429;SDS011;33181;49.246;7.372;2023-05-29T07:21:13;7.00;;;4.63;;
47429;SDS011;33181;49.246;7.372;2023-05-29T07:23:39;9.23;;;5.20;;
47429;SDS011;33181;49.246;7.372;2023-05-29T07:26:05;11.23;;;4.83;;
47429;SDS011;33181;49.246;7.372;2023-05-29T07:28:31;6.67;;;4.80;;
47429;SDS011;33181;49.246;7.372;2023-05-29T07:30:57;9.60;;;4.87;;
47429;SDS011;33181;49.246;7.372;2023-05-29T07:33:23;6.23;;;4.40;;
47429;SDS011;33181;49.246;7.372;2023-05-29T07:35:49;8.83;;;4.50;;
47429;SDS011;33181;49.246;7.372;2023-05-29T07:38:15;7.77;;;5.23;;
47429;SDS011;33181;49.246;7.372;2023-05-29T07:40:41;9.40;;;4.83;;
47429;SDS011;33181;49.246;7.372;2023-05-29T07:43:07;9.43;;;5.00;;
47429;SDS011;33181;49.246;7.372;2023-05-29T07:45:33;7.87;;;5.07;;
47429;SDS011;33181;49.246;7.372;2023-05-29T07:47:59;9.37;;;4.70;;
47429;SDS011;33181;49.246;7.372;2023-05-29T07:50:25;8.97;;;4.90;;
47429;SDS011;33181;49.246;7.372;2023-05-29T07:52:50;7.43;;;4.73;;
47429;SDS011;33181;49.246;7.372;2023-05-29T07:55:17;7.17;;;4.60;;
47429;SDS011;33181;49.246;7.372;2023-05-29T07:57:51;7.13;;;4.63;;
47429;SDS011;33181;49.246;7.372;2023-05-29T08:00:20;7.63;;;4.33;;
47429;SDS011;33181;49.246;7.372;2023-05-29T08:02:46;9.23;;;4.50;;
47429;SDS011;33181;49.246;7.372;2023-05-29T08:05:12;6.27;;;4.60;;
47429;SDS011;33181;49.246;7.372;2023-05-29T08:07:39;9.17;;;5.00;;
47429;SDS011;33181;49.246;7.372;2023-05-29T08:10:07;8.87;;;4.40;;
47429;SDS011;33181;49.246;7.372;2023-05-29T08:12:33;7.63;;;4.80;;
47429;SDS011;33181;49.246;7.372;2023-05-29T08:15:00;6.27;;;5.00;;
47429;SDS011;33181;49.246;7.372;2023-05-29T08:17:28;9.47;;;4.70;;
47429;SDS011;33181;49.246;7.372;2023-05-29T08:19:54;7.10;;;4.23;;
47429;SDS011;33181;49.246;7.372;2023-05-29T08:22:22;8.63;;;4.70;;
47429;SDS011;33181;49.246;7.372;2023-05-29T08:24:58;7.50;;;4.67;;
47429;SDS011;33181;49.246;7.372;2023-05-29T08:27:24;7.03;;;4.60;;
47429;SDS011;33181;49.246;7.372;2023-05-29T08:29:50;6.60;;;4.40;;
47429;SDS011;33181;49.246;7.372;2023-05-29T08:32:16;6.20;;;4.57;;
47429;SDS011;33181;49.246;7.372;2023-05-29T08:34:42;6.40;;;4.37;;
47429;SDS011;33181;49.246;7.372;2023-05-29T08:37:10;8.00;;;4.60;;
47429;SDS011;33181;49.246;7.372;2023-05-29T08:39:37;6.00;;;4.30;;
47429;SDS011;33181;49.246;7.372;2023-05-29T08:42:10;8.77;;;4.40;;
47429;SDS011;33181;49.246;7.372;2023-05-29T08:44:43;6.90;;;4.53;;
47429;SDS011;33181;49.246;7.372;2023-05-29T08:47:16;7.70;;;5.40;;
47429;SDS011;33181;49.246;7.372;2023-05-29T08:49:45;8.97;;;4.97;;
47429;SDS011;33181;49.246;7.372;2023-05-29T08:52:19;6.20;;;4.60;;
47429;SDS011;33181;49.246;7.372;2023-05-29T08:54:50;6.73;;;4.50;;
47429;SDS011;33181;49.246;7.372;2023-05-29T08:57:17;6.07;;;4.23;;
47429;SDS011;33181;49.246;7.372;2023-05-29T08:59:45;7.77;;;4.47;;
47429;SDS011;33181;49.246;7.372;2023-05-29T09:02:11;7.23;;;4.97;;
47429;SDS011;33181;49.246;7.372;2023-05-29T09:04:40;9.07;;;4.63;;
47429;SDS011;33181;49.246;7.372;2023-05-29T09:07:09;9.43;;;5.17;;
47429;SDS011;33181;49.246;7.372;2023-05-29T09:09:39;7.83;;;4.77;;
47429;SDS011;33181;49.246;7.372;2023-05-29T09:12:05;6.63;;;4.70;;
47429;SDS011;33181;49.246;7.372;2023-05-29T09:14:39;8.37;;;4.70;;
47429;SDS011;33181;49.246;7.372;2023-05-29T09:17:09;9.53;;;4.77;;
47429;SDS011;33181;49.246;7.372;2023-05-29T09:19:37;9.40;;;5.47;;
47429;SDS011;33181;49.246;7.372;2023-05-29T09:22:09;6.00;;;4.50;;
47429;SDS011;33181;49.246;7.372;2023-05-29T09:24:40;6.27;;;4.70;;
47429;SDS011;33181;49.246;7.372;2023-05-29T09:27:08;7.90;;;4.43;;
47429;SDS011;33181;49.246;7.372;2023-05-29T09:29:37;6.63;;;4.17;;
47429;SDS011;33181;49.246;7.372;2023-05-29T09:32:09;7.80;;;4.40;;
47429;SDS011;33181;49.246;7.372;2023-05-29T09:34:36;8.07;;;4.80;;
47429;SDS011;33181;49.246;7.372;2023-05-29T09:37:07;6.20;;;4.20;;
47429;SDS011;33181;49.246;7.372;2023-05-29T09:39:55;5.80;;;4.40;;
47429;SDS011;33181;49.246;7.372;2023-05-29T09:42:20;6.13;;;4.73;;
47429;SDS011;33181;49.246;7.372;2023-05-29T09:44:49;7.83;;;4.80;;
47429;SDS011;33181;49.246;7.372;2023-05-29T09:47:19;8.00;;;4.77;;
47429;SDS011;33181;49.246;7.372;2023-05-29T09:49:46;7.60;;;4.97;;
47429;SDS011;33181;49.246;7.372;2023-05-29T09:52:13;6.97;;;4.60;;
47429;SDS011;33181;49.246;7.372;2023-05-29T09:54:40;7.83;;;4.57;;
47429;SDS011;33181;49.246;7.372;2023-05-29T09:57:12;6.80;;;4.73;;
47429;SDS011;33181;49.246;7.372;2023-05-29T09:59:44;14.43;;;6.53;;
47429;SDS011;33181;49.246;7.372;2023-05-29T10:02:16;10.80;;;4.60;;
47429;SDS011;33181;49.246;7.372;2023-05-29T10:04:42;6.97;;;4.67;;
47429;SDS011;33181;49.246;7.372;2023-05-29T10:07:10;6.57;;;4.90;;
47429;SDS011;33181;49.246;7.372;2023-05-29T10:10:00;9.00;;;5.10;;
47429;SDS011;33181;49.246;7.372;2023-05-29T10:12:34;9.50;;;5.53;;
47429;SDS011;33181;49.246;7.372;2023-05-29T10:15:05;6.07;;;4.70;;
47429;SDS011;33181;49.246;7.372;2023-05-29T10:17:46;10.90;;;5.20;;
47429;SDS011;33181;49.246;7.372;2023-05-29T10:21:11;8.60;;;5.13;;
47429;SDS011;33181;49.246;7.372;2023-05-29T10:23:38;8.90;;;5.03;;
47429;SDS011;33181;49.246;7.372;2023-05-29T10:28:59;7.33;;;5.50;;
47429;SDS011;33181;49.246;7.372;2023-05-29T10:35:22;10.17;;;5.13;;
47429;SDS011;33181;49.246;7.372;2023-05-29T10:38:12;8.87;;;5.63;;
47429;SDS011;33181;49.246;7.372;2023-05-29T10:40:42;12.97;;;5.53;;
47429;SDS011;33181;49.246;7.372;2023-05-29T10:43:10;6.57;;;5.37;;
47429;SDS011;33181;49.246;7.372;2023-05-29T10:45:58;10.47;;;6.03;;
47429;SDS011;33181;49.246;7.372;2023-05-29T10:50:55;9.27;;;6.27;;
47429;SDS011;33181;49.246;7.372;2023-05-29T10:53:26;7.03;;;5.50;;
47429;SDS011;33181;49.246;7.372;2023-05-29T10:55:56;9.30;;;7.70;;
47429;SDS011;33181;49.246;7.372;2023-05-29T10:58:26;9.03;;;5.50;;
47429;SDS011;33181;49.246;7.372;2023-05-29T11:00:53;9.97;;;5.93;;
47429;SDS011;33181;49.246;7.372;2023-05-29T11:03:22;9.43;;;6.80;;
47429;SDS011;33181;49.246;7.372;2023-05-29T11:13:54;8.70;;;5.50;;
47429;SDS011;33181;49.246;7.372;2023-05-29T11:18:54;8.83;;;5.20;;
47429;SDS011;33181;49.246;7.372;2023-05-29T11:25:09;9.13;;;5.90;;
47429;SDS011;33181;49.246;7.372;2023-05-29T11:27:35;11.37;;;5.83;;
47429;SDS011;33181;49.246;7.372;2023-05-29T11:30:03;11.13;;;6.97;;
47429;SDS011;33181;49.246;7.372;2023-05-29T11:32:30;14.30;;;7.33;;
47429;SDS011;33181;49.246;7.372;2023-05-29T11:35:02;7.03;;;5.10;;
47429;SDS011;33181;49.246;7.372;2023-05-29T11:37:33;7.40;;;5.20;;
47429;SDS011;33181;49.246;7.372;2023-05-29T11:40:03;9.10;;;5.37;;
47429;SDS011;33181;49.246;7.372;2023-05-29T11:42:34;8.10;;;5.30;;
47429;SDS011;33181;49.246;7.372;2023-05-29T11:45:11;6.63;;;5.20;;
47429;SDS011;33181;49.246;7.372;2023-05-29T11:47:56;6.40;;;5.10;;
47429;SDS011;33181;49.246;7.372;2023-05-29T11:50:28;8.40;;;5.30;;
47429;SDS011;33181;49.246;7.372;2023-05-29T11:52:56;13.90;;;6.07;;
47429;SDS011;33181;49.246;7.372;2023-05-29T11:55:24;16.37;;;6.00;;
47429;SDS011;33181;49.246;7.372;2023-05-29T11:58:07;11.40;;;5.57;;
47429;SDS011;33181;49.246;7.372;2023-05-29T12:00:37;8.57;;;5.53;;
47429;SDS011;33181;49.246;7.372;2023-05-29T12:03:04;6.20;;;5.23;;
47429;SDS011;33181;49.246;7.372;2023-05-29T12:05:52;8.07;;;5.60;;
47429;SDS011;33181;49.246;7.372;2023-05-29T12:08:24;8.30;;;5.27;;
47429;SDS011;33181;49.246;7.372;2023-05-29T12:10:51;8.57;;;5.70;;
47429;SDS011;33181;49.246;7.372;2023-05-29T12:13:21;7.60;;;5.30;;
47429;SDS011;33181;49.246;7.372;2023-05-29T12:15:49;15.40;;;5.90;;
47429;SDS011;33181;49.246;7.372;2023-05-29T12:18:21;9.07;;;5.47;;
47429;SDS011;33181;49.246;7.372;2023-05-29T12:20:47;7.93;;;5.10;;
47429;SDS011;33181;49.246;7.372;2023-05-29T12:23:13;11.00;;;6.00;;
47429;SDS011;33181;49.246;7.372;2023-05-29T12:25:39;9.73;;;5.00;;
47429;SDS011;33181;49.246;7.372;2023-05-29T12:28:05;10.93;;;4.83;;
47429;SDS011;33181;49.246;7.372;2023-05-29T12:30:36;7.10;;;5.37;;
47429;SDS011;33181;49.246;7.372;2023-05-29T12:33:04;8.47;;;5.23;;
47429;SDS011;33181;49.246;7.372;2023-05-29T12:35:31;7.37;;;4.90;;
47429;SDS011;33181;49.246;7.372;2023-05-29T12:38:01;7.87;;;5.70;;
47429;SDS011;33181;49.246;7.372;2023-05-29T12:40:33;7.07;;;5.20;;
47429;SDS011;33181;49.246;7.372;2023-05-29T12:43:06;8.10;;;5.10;;
47429;SDS011;33181;49.246;7.372;2023-05-29T12:45:34;9.07;;;4.90;;
47429;SDS011;33181;49.246;7.372;2023-05-29T12:48:01;10.33;;;5.20;;
47429;SDS011;33181;49.246;7.372;2023-05-29T12:50:32;6.60;;;5.20;;
47429;SDS011;33181;49.246;7.372;2023-05-29T12:53:08;12.03;;;5.90;;
47429;SDS011;33181;49.246;7.372;2023-05-29T12:55:42;6.70;;;5.23;;
47429;SDS011;33181;49.246;7.372;2023-05-29T12:58:12;12.30;;;5.50;;
47429;SDS011;33181;49.246;7.372;2023-05-29T13:00:40;7.90;;;5.33;;
47429;SDS011;33181;49.246;7.372;2023-05-29T13:03:08;14.43;;;5.40;;
47429;SDS011;33181;49.246;7.372;2023-05-29T13:05:36;7.50;;;5.33;;
47429;SDS011;33181;49.246;7.372;2023-05-29T13:08:02;7.57;;;5.30;;
47429;SDS011;33181;49.246;7.372;2023-05-29T13:10:32;9.33;;;5.07;;
47429;SDS011;33181;49.246;7.372;2023-05-29T13:12:59;8.67;;;5.20;;
47429;SDS011;33181;49.246;7.372;2023-05-29T13:15:25;8.63;;;5.33;;
47429;SDS011;33181;49.246;7.372;2023-05-29T13:17:52;7.83;;;5.10;;
47429;SDS011;33181;49.246;7.372;2023-05-29T13:20:18;8.90;;;5.40;;
47429;SDS011;33181;49.246;7.372;2023-05-29T13:22:47;9.10;;;5.10;;
47429;SDS011;33181;49.246;7.372;2023-05-29T13:25:14;9.07;;;4.97;;
47429;SDS011;33181;49.246;7.372;2023-05-29T13:30:43;9.43;;;5.20;;
47429;SDS011;33181;49.246;7.372;2023-05-29T13:33:09;8.60;;;5.40;;
47429;SDS011;33181;49.246;7.372;2023-05-29T13:35:39;6.27;;;4.70;;
47429;SDS011;33181;49.246;7.372;2023-05-29T13:38:05;6.27;;;4.73;;
47429;SDS011;33181;49.246;7.372;2023-05-29T13:40:31;12.60;;;5.60;;
47429;SDS011;33181;49.246;7.372;2023-05-29T13:42:57;6.73;;;5.30;;
47429;SDS011;33181;49.246;7.372;2023-05-29T13:45:23;8.67;;;5.00;;
47429;SDS011;33181;49.246;7.372;2023-05-29T13:47:49;11.60;;;5.50;;
47429;SDS011;33181;49.246;7.372;2023-05-29T13:50:15;8.57;;;4.80;;
47429;SDS011;33181;49.246;7.372;2023-05-29T13:52:41;6.10;;;4.57;;
47429;SDS011;33181;49.246;7.372;2023-05-29T13:55:06;9.13;;;5.00;;
47429;SDS011;33181;49.246;7.372;2023-05-29T13:57:36;7.93;;;5.17;;
47429;SDS011;33181;49.246;7.372;2023-05-29T14:00:03;8.37;;;5.00;;
47429;SDS011;33181;49.246;7.372;2023-05-29T14:02:30;8.27;;;4.87;;
47429;SDS011;33181;49.246;7.372;2023-05-29T14:04:56;11.33;;;5.57;;
47429;SDS011;33181;49.246;7.372;2023-05-29T14:07:22;9.67;;;4.40;;
47429;SDS011;33181;49.246;7.372;2023-05-29T14:09:49;6.93;;;5.20;;
47429;SDS011;33181;49.246;7.372;2023-05-29T14:12:15;7.23;;;4.60;;
47429;SDS011;33181;49.246;7.372;2023-05-29T14:14:41;7.30;;;5.10;;
47429;SDS011;33181;49.246;7.372;2023-05-29T14:17:08;10.10;;;4.93;;
47429;SDS011;33181;49.246;7.372;2023-05-29T14:19:34;7.90;;;4.63;;
47429;SDS011;33181;49.246;7.372;2023-05-29T14:22:00;7.20;;;5.00;;
47429;SDS011;33181;49.246;7.372;2023-05-29T14:24:26;6.93;;;5.17;;
47429;SDS011;33181;49.246;7.372;2023-05-29T14:26:52;8.00;;;5.13;;
47429;SDS011;33181;49.246;7.372;2023-05-29T14:29:18;11.57;;;5.53;;
47429;SDS011;33181;49.246;7.372;2023-05-29T14:31:43;7.93;;;4.77;;
47429;SDS011;33181;49.246;7.372;2023-05-29T14:34:11;6.10;;;4.77;;
47429;SDS011;33181;49.246;7.372;2023-05-29T14:36:37;10.40;;;5.57;;
47429;SDS011;33181;49.246;7.372;2023-05-29T14:39:04;6.20;;;5.17;;
47429;SDS011;33181;49.246;7.372;2023-05-29T14:41:31;6.97;;;5.50;;
47429;SDS011;33181;49.246;7.372;2023-05-29T14:43:58;6.77;;;4.53;;
47429;SDS011;33181;49.246;7.372;2023-05-29T14:46:27;7.60;;;5.13;;
47429;SDS011;33181;49.246;7.372;2023-05-29T14:48:56;9.53;;;5.40;;
47429;SDS011;33181;49.246;7.372;2023-05-29T14:51:32;6.50;;;4.93;;
47429;SDS011;33181;49.246;7.372;2023-05-29T14:53:58;6.73;;;5.53;;
47429;SDS011;33181;49.246;7.372;2023-05-29T14:56:24;10.90;;;5.80;;
47429;SDS011;33181;49.246;7.372;2023-05-29T14:58:50;6.30;;;5.03;;
47429;SDS011;33181;49.246;7.372;2023-05-29T15:01:17;6.53;;;5.07;;
47429;SDS011;33181;49.246;7.372;2023-05-29T15:03:43;6.60;;;4.67;;
47429;SDS011;33181;49.246;7.372;2023-05-29T15:06:12;9.10;;;4.80;;
47429;SDS011;33181;49.246;7.372;2023-05-29T15:08:38;6.30;;;4.70;;
47429;SDS011;33181;49.246;7.372;2023-05-29T15:11:07;6.13;;;4.83;;
47429;SDS011;33181;49.246;7.372;2023-05-29T15:13:34;8.77;;;4.50;;
47429;SDS011;33181;49.246;7.372;2023-05-29T15:16:01;7.70;;;5.00;;
47429;SDS011;33181;49.246;7.372;2023-05-29T15:18:28;6.33;;;4.20;;
47429;SDS011;33181;49.246;7.372;2023-05-29T15:20:58;5.57;;;4.30;;